sensor_id;sensor_type;location;lat;lon;timestamp;P1;durP1;ratioP1;P2;durP2;ratioP2
51692;SDS011;37777;53.066;21.638;2023-02-28T00:01:45;116.38;;;38.17;;
51692;SDS011;37777;53.066;21.638;2023-02-28T00:08:47;103.63;;;35.20;;
51692;SDS011;37777;53.066;21.638;2023-02-28T00:15:58;107.88;;;35.13;;
51692;SDS011;37777;53.066;21.638;2023-02-28T00:23:03;104.78;;;35.92;;
51692;SDS011;37777;53.066;21.638;2023-02-28T00:30:06;120.45;;;37.92;;
51692;SDS011;37777;53.066;21.638;2023-02-28T00:37:09;130.15;;;38.28;;
51692;SDS011;37777;53.066;21.638;2023-02-28T00:44:13;121.85;;;39.83;;
51692;SDS011;37777;53.066;21.638;2023-02-28T00:51:15;110.78;;;36.80;;
51692;SDS011;37777;53.066;21.638;2023-02-28T00:58:17;113.93;;;36.05;;
51692;SDS011;37777;53.066;21.638;2023-02-28T01:05:20;104.35;;;33.55;;
51692;SDS011;37777;53.066;21.638;2023-02-28T01:12:22;99.53;;;33.00;;
51692;SDS011;37777;53.066;21.638;2023-02-28T01:19:23;83.10;;;29.67;;
51692;SDS011;37777;53.066;21.638;2023-02-28T01:26:26;87.90;;;31.45;;
51692;SDS011;37777;53.066;21.638;2023-02-28T01:33:28;84.40;;;31.85;;
51692;SDS011;37777;53.066;21.638;2023-02-28T01:40:30;91.28;;;30.77;;
51692;SDS011;37777;53.066;21.638;2023-02-28T01:47:33;81.65;;;28.42;;
51692;SDS011;37777;53.066;21.638;2023-02-28T01:54:37;92.72;;;29.35;;
51692;SDS011;37777;53.066;21.638;2023-02-28T02:01:39;70.95;;;31.38;;
51692;SDS011;37777;53.066;21.638;2023-02-28T02:08:42;76.28;;;28.70;;
51692;SDS011;37777;53.066;21.638;2023-02-28T02:37:47;136.70;;;43.85;;
51692;SDS011;37777;53.066;21.638;2023-02-28T02:45:10;157.38;;;44.10;;
51692;SDS011;37777;53.066;21.638;2023-02-28T02:52:38;163.07;;;41.50;;
51692;SDS011;37777;53.066;21.638;2023-02-28T02:59:44;130.90;;;40.03;;
51692;SDS011;37777;53.066;21.638;2023-02-28T03:06:46;139.70;;;39.92;;
51692;SDS011;37777;53.066;21.638;2023-02-28T03:13:54;142.00;;;41.05;;
51692;SDS011;37777;53.066;21.638;2023-02-28T03:35:21;114.05;;;36.47;;
51692;SDS011;37777;53.066;21.638;2023-02-28T03:42:26;133.88;;;39.65;;
51692;SDS011;37777;53.066;21.638;2023-02-28T03:49:35;116.45;;;36.33;;
51692;SDS011;37777;53.066;21.638;2023-02-28T03:56:56;106.05;;;33.35;;
51692;SDS011;37777;53.066;21.638;2023-02-28T04:04:02;101.80;;;33.92;;
51692;SDS011;37777;53.066;21.638;2023-02-28T04:11:14;104.43;;;33.45;;
51692;SDS011;37777;53.066;21.638;2023-02-28T04:18:20;92.50;;;33.25;;
51692;SDS011;37777;53.066;21.638;2023-02-28T04:25:22;95.32;;;34.70;;
51692;SDS011;37777;53.066;21.638;2023-02-28T04:32:24;113.03;;;38.15;;
51692;SDS011;37777;53.066;21.638;2023-02-28T04:39:26;117.85;;;37.50;;
51692;SDS011;37777;53.066;21.638;2023-02-28T04:46:28;130.75;;;41.58;;
51692;SDS011;37777;53.066;21.638;2023-02-28T04:53:32;135.50;;;42.50;;
51692;SDS011;37777;53.066;21.638;2023-02-28T05:00:34;190.73;;;48.63;;
51692;SDS011;37777;53.066;21.638;2023-02-28T05:07:36;171.45;;;49.03;;
51692;SDS011;37777;53.066;21.638;2023-02-28T05:14:38;170.75;;;47.88;;
51692;SDS011;37777;53.066;21.638;2023-02-28T05:21:41;167.95;;;50.70;;
51692;SDS011;37777;53.066;21.638;2023-02-28T05:28:49;204.30;;;52.63;;
51692;SDS011;37777;53.066;21.638;2023-02-28T05:35:52;213.20;;;58.03;;
51692;SDS011;37777;53.066;21.638;2023-02-28T05:42:54;178.82;;;57.55;;
51692;SDS011;37777;53.066;21.638;2023-02-28T05:49:56;189.88;;;54.65;;
51692;SDS011;37777;53.066;21.638;2023-02-28T05:56:58;176.05;;;49.58;;
51692;SDS011;37777;53.066;21.638;2023-02-28T06:04:00;165.55;;;47.55;;
51692;SDS011;37777;53.066;21.638;2023-02-28T06:11:03;179.68;;;47.90;;
51692;SDS011;37777;53.066;21.638;2023-02-28T06:18:05;190.38;;;51.00;;
51692;SDS011;37777;53.066;21.638;2023-02-28T06:25:09;163.50;;;49.95;;
51692;SDS011;37777;53.066;21.638;2023-02-28T06:32:11;151.38;;;45.75;;
51692;SDS011;37777;53.066;21.638;2023-02-28T06:39:13;176.32;;;51.67;;
51692;SDS011;37777;53.066;21.638;2023-02-28T06:46:15;236.32;;;69.05;;
51692;SDS011;37777;53.066;21.638;2023-02-28T06:53:18;240.57;;;75.72;;
51692;SDS011;37777;53.066;21.638;2023-02-28T07:00:20;202.32;;;62.55;;
51692;SDS011;37777;53.066;21.638;2023-02-28T07:07:22;218.43;;;66.35;;
51692;SDS011;37777;53.066;21.638;2023-02-28T07:14:24;153.50;;;51.15;;
51692;SDS011;37777;53.066;21.638;2023-02-28T07:21:26;89.38;;;29.63;;
51692;SDS011;37777;53.066;21.638;2023-02-28T07:28:29;79.68;;;30.23;;
51692;SDS011;37777;53.066;21.638;2023-02-28T07:35:32;53.70;;;19.92;;
51692;SDS011;37777;53.066;21.638;2023-02-28T07:42:34;17.67;;;10.75;;
51692;SDS011;37777;53.066;21.638;2023-02-28T07:49:37;26.02;;;10.82;;
51692;SDS011;37777;53.066;21.638;2023-02-28T07:56:39;23.40;;;11.38;;
51692;SDS011;37777;53.066;21.638;2023-02-28T08:03:41;8.88;;;6.30;;
51692;SDS011;37777;53.066;21.638;2023-02-28T08:10:43;15.65;;;9.80;;
51692;SDS011;37777;53.066;21.638;2023-02-28T08:17:45;23.92;;;6.15;;
51692;SDS011;37777;53.066;21.638;2023-02-28T08:24:47;4.55;;;4.25;;
51692;SDS011;37777;53.066;21.638;2023-02-28T08:31:50;6.15;;;5.47;;
51692;SDS011;37777;53.066;21.638;2023-02-28T08:38:53;9.18;;;6.85;;
51692;SDS011;37777;53.066;21.638;2023-02-28T08:45:55;12.75;;;7.43;;
51692;SDS011;37777;53.066;21.638;2023-02-28T08:52:58;5.35;;;4.95;;
51692;SDS011;37777;53.066;21.638;2023-02-28T09:00:01;12.50;;;6.65;;
51692;SDS011;37777;53.066;21.638;2023-02-28T09:07:06;7.55;;;5.18;;
51692;SDS011;37777;53.066;21.638;2023-02-28T09:14:08;10.40;;;6.03;;
51692;SDS011;37777;53.066;21.638;2023-02-28T09:21:11;6.15;;;4.75;;
51692;SDS011;37777;53.066;21.638;2023-02-28T09:28:18;9.45;;;6.13;;
51692;SDS011;37777;53.066;21.638;2023-02-28T09:35:21;13.40;;;6.15;;
51692;SDS011;37777;53.066;21.638;2023-02-28T09:42:30;9.93;;;5.30;;
51692;SDS011;37777;53.066;21.638;2023-02-28T09:49:43;7.97;;;4.70;;
51692;SDS011;37777;53.066;21.638;2023-02-28T09:56:50;6.60;;;5.07;;
51692;SDS011;37777;53.066;21.638;2023-02-28T10:11:54;11.15;;;7.25;;
51692;SDS011;37777;53.066;21.638;2023-02-28T10:19:03;13.65;;;7.05;;
51692;SDS011;37777;53.066;21.638;2023-02-28T10:26:16;5.63;;;5.00;;
51692;SDS011;37777;53.066;21.638;2023-02-28T10:47:23;9.85;;;6.15;;
51692;SDS011;37777;53.066;21.638;2023-02-28T10:54:36;10.65;;;6.20;;
51692;SDS011;37777;53.066;21.638;2023-02-28T11:01:43;11.93;;;5.97;;
51692;SDS011;37777;53.066;21.638;2023-02-28T11:08:51;6.72;;;5.32;;
51692;SDS011;37777;53.066;21.638;2023-02-28T11:15:58;8.20;;;5.18;;
51692;SDS011;37777;53.066;21.638;2023-02-28T11:23:03;4.95;;;4.20;;
51692;SDS011;37777;53.066;21.638;2023-02-28T11:30:12;13.57;;;6.78;;
51692;SDS011;37777;53.066;21.638;2023-02-28T11:37:29;10.00;;;6.15;;
51692;SDS011;37777;53.066;21.638;2023-02-28T12:22:05;14.55;;;7.10;;
51692;SDS011;37777;53.066;21.638;2023-02-28T12:36:17;16.90;;;7.30;;
51692;SDS011;37777;53.066;21.638;2023-02-28T12:43:24;4.63;;;4.18;;
51692;SDS011;37777;53.066;21.638;2023-02-28T12:50:32;13.00;;;7.55;;
51692;SDS011;37777;53.066;21.638;2023-02-28T12:57:41;9.73;;;5.40;;
51692;SDS011;37777;53.066;21.638;2023-02-28T13:12:13;3.95;;;3.45;;
51692;SDS011;37777;53.066;21.638;2023-02-28T13:19:16;10.82;;;5.50;;
51692;SDS011;37777;53.066;21.638;2023-02-28T13:26:19;3.17;;;2.97;;
51692;SDS011;37777;53.066;21.638;2023-02-28T13:40:32;5.07;;;3.45;;
51692;SDS011;37777;53.066;21.638;2023-02-28T13:47:43;7.15;;;4.72;;
51692;SDS011;37777;53.066;21.638;2023-02-28T14:10:04;14.27;;;6.63;;
51692;SDS011;37777;53.066;21.638;2023-02-28T14:17:14;5.40;;;4.60;;
51692;SDS011;37777;53.066;21.638;2023-02-28T14:31:25;4.28;;;3.88;;
51692;SDS011;37777;53.066;21.638;2023-02-28T14:38:32;10.13;;;3.88;;
51692;SDS011;37777;53.066;21.638;2023-02-28T14:45:40;14.80;;;6.87;;
51692;SDS011;37777;53.066;21.638;2023-02-28T14:52:42;7.05;;;4.47;;
51692;SDS011;37777;53.066;21.638;2023-02-28T14:59:44;15.02;;;6.35;;
51692;SDS011;37777;53.066;21.638;2023-02-28T15:06:54;8.98;;;5.20;;
51692;SDS011;37777;53.066;21.638;2023-02-28T15:14:13;23.02;;;9.30;;
51692;SDS011;37777;53.066;21.638;2023-02-28T15:21:24;13.60;;;8.07;;
51692;SDS011;37777;53.066;21.638;2023-02-28T15:28:28;28.50;;;10.77;;
51692;SDS011;37777;53.066;21.638;2023-02-28T15:35:31;14.82;;;7.53;;
51692;SDS011;37777;53.066;21.638;2023-02-28T15:42:34;15.50;;;8.07;;
51692;SDS011;37777;53.066;21.638;2023-02-28T15:49:40;23.13;;;9.32;;
51692;SDS011;37777;53.066;21.638;2023-02-28T15:57:06;17.63;;;7.55;;
51692;SDS011;37777;53.066;21.638;2023-02-28T16:04:15;44.63;;;19.45;;
51692;SDS011;37777;53.066;21.638;2023-02-28T16:11:20;22.75;;;11.23;;
51692;SDS011;37777;53.066;21.638;2023-02-28T16:18:23;22.58;;;11.07;;
51692;SDS011;37777;53.066;21.638;2023-02-28T16:25:28;71.00;;;26.23;;
51692;SDS011;37777;53.066;21.638;2023-02-28T16:32:35;97.05;;;28.88;;
51692;SDS011;37777;53.066;21.638;2023-02-28T16:39:38;134.55;;;37.55;;
51692;SDS011;37777;53.066;21.638;2023-02-28T16:46:41;92.90;;;30.33;;
51692;SDS011;37777;53.066;21.638;2023-02-28T16:53:44;122.38;;;37.38;;
51692;SDS011;37777;53.066;21.638;2023-02-28T17:00:48;70.20;;;25.75;;
51692;SDS011;37777;53.066;21.638;2023-02-28T17:07:50;91.05;;;28.65;;
51692;SDS011;37777;53.066;21.638;2023-02-28T17:14:52;46.88;;;15.88;;
51692;SDS011;37777;53.066;21.638;2023-02-28T17:21:55;68.85;;;21.30;;
51692;SDS011;37777;53.066;21.638;2023-02-28T17:28:57;154.48;;;39.78;;
51692;SDS011;37777;53.066;21.638;2023-02-28T17:35:59;67.03;;;19.80;;
51692;SDS011;37777;53.066;21.638;2023-02-28T17:43:05;80.43;;;27.42;;
51692;SDS011;37777;53.066;21.638;2023-02-28T17:50:14;72.07;;;24.92;;
51692;SDS011;37777;53.066;21.638;2023-02-28T17:57:19;84.53;;;25.55;;
51692;SDS011;37777;53.066;21.638;2023-02-28T18:04:22;43.65;;;16.67;;
51692;SDS011;37777;53.066;21.638;2023-02-28T18:11:25;41.58;;;15.15;;
51692;SDS011;37777;53.066;21.638;2023-02-28T18:18:44;34.83;;;11.40;;
51692;SDS011;37777;53.066;21.638;2023-02-28T18:25:47;95.88;;;26.83;;
51692;SDS011;37777;53.066;21.638;2023-02-28T18:32:50;66.78;;;22.23;;
51692;SDS011;37777;53.066;21.638;2023-02-28T18:39:53;92.85;;;25.58;;
51692;SDS011;37777;53.066;21.638;2023-02-28T18:46:58;71.25;;;24.30;;
51692;SDS011;37777;53.066;21.638;2023-02-28T18:54:03;39.80;;;14.90;;
51692;SDS011;37777;53.066;21.638;2023-02-28T19:01:17;32.72;;;13.18;;
51692;SDS011;37777;53.066;21.638;2023-02-28T19:08:20;41.13;;;13.05;;
51692;SDS011;37777;53.066;21.638;2023-02-28T19:15:22;48.67;;;17.27;;
51692;SDS011;37777;53.066;21.638;2023-02-28T19:22:28;35.00;;;14.60;;
51692;SDS011;37777;53.066;21.638;2023-02-28T19:29:32;54.85;;;15.90;;
51692;SDS011;37777;53.066;21.638;2023-02-28T19:36:38;75.32;;;22.70;;
51692;SDS011;37777;53.066;21.638;2023-02-28T19:43:44;65.82;;;22.48;;
51692;SDS011;37777;53.066;21.638;2023-02-28T19:50:47;81.18;;;24.40;;
51692;SDS011;37777;53.066;21.638;2023-02-28T19:57:53;66.57;;;20.10;;
51692;SDS011;37777;53.066;21.638;2023-02-28T20:04:56;48.65;;;18.52;;
51692;SDS011;37777;53.066;21.638;2023-02-28T20:12:02;44.47;;;17.35;;
51692;SDS011;37777;53.066;21.638;2023-02-28T20:19:09;63.78;;;18.85;;
51692;SDS011;37777;53.066;21.638;2023-02-28T20:26:12;40.05;;;15.02;;
51692;SDS011;37777;53.066;21.638;2023-02-28T20:33:17;104.90;;;31.98;;
51692;SDS011;37777;53.066;21.638;2023-02-28T20:40:26;92.97;;;24.60;;
51692;SDS011;37777;53.066;21.638;2023-02-28T20:47:31;54.45;;;20.23;;
51692;SDS011;37777;53.066;21.638;2023-02-28T20:54:34;84.60;;;27.55;;
51692;SDS011;37777;53.066;21.638;2023-02-28T21:01:37;68.43;;;22.27;;
51692;SDS011;37777;53.066;21.638;2023-02-28T21:08:41;52.72;;;20.13;;
51692;SDS011;37777;53.066;21.638;2023-02-28T21:15:44;32.33;;;14.48;;
51692;SDS011;37777;53.066;21.638;2023-02-28T21:22:47;31.35;;;13.85;;
51692;SDS011;37777;53.066;21.638;2023-02-28T21:29:49;31.48;;;12.05;;
51692;SDS011;37777;53.066;21.638;2023-02-28T21:36:52;36.33;;;13.57;;
51692;SDS011;37777;53.066;21.638;2023-02-28T21:43:55;49.58;;;18.13;;
51692;SDS011;37777;53.066;21.638;2023-02-28T21:50:58;35.25;;;14.85;;
51692;SDS011;37777;53.066;21.638;2023-02-28T21:58:02;48.63;;;15.90;;
51692;SDS011;37777;53.066;21.638;2023-02-28T22:05:05;40.72;;;15.10;;
51692;SDS011;37777;53.066;21.638;2023-02-28T22:12:08;38.00;;;15.57;;
51692;SDS011;37777;53.066;21.638;2023-02-28T22:19:10;50.60;;;19.50;;
51692;SDS011;37777;53.066;21.638;2023-02-28T22:26:13;53.20;;;19.55;;
51692;SDS011;37777;53.066;21.638;2023-02-28T22:33:17;43.30;;;14.10;;
51692;SDS011;37777;53.066;21.638;2023-02-28T22:40:21;34.33;;;12.23;;
51692;SDS011;37777;53.066;21.638;2023-02-28T22:47:23;37.17;;;14.35;;
51692;SDS011;37777;53.066;21.638;2023-02-28T22:54:27;62.60;;;22.65;;
51692;SDS011;37777;53.066;21.638;2023-02-28T23:01:29;123.85;;;32.47;;
51692;SDS011;37777;53.066;21.638;2023-02-28T23:08:32;95.72;;;27.17;;
51692;SDS011;37777;53.066;21.638;2023-02-28T23:15:34;80.32;;;22.85;;
51692;SDS011;37777;53.066;21.638;2023-02-28T23:22:40;110.90;;;29.15;;
51692;SDS011;37777;53.066;21.638;2023-02-28T23:29:46;124.25;;;31.80;;
51692;SDS011;37777;53.066;21.638;2023-02-28T23:36:48;39.45;;;15.32;;
51692;SDS011;37777;53.066;21.638;2023-02-28T23:43:51;32.25;;;13.75;;
51692;SDS011;37777;53.066;21.638;2023-02-28T23:50:54;28.15;;;13.02;;
51692;SDS011;37777;53.066;21.638;2023-02-28T23:57:58;41.20;;;13.85;;
